createdAt,value
2018-09-13T00:01:56.928Z,55.23
2018-09-13T00:04:26.120Z,55.15
2018-09-13T00:06:55.431Z,55.17
2018-09-13T00:09:24.650Z,55.75
2018-09-13T00:11:53.721Z,55.65
2018-09-13T00:14:23.252Z,54.98
2018-09-13T00:16:52.471Z,54.92
2018-09-13T00:19:21.486Z,55.22
2018-09-13T00:21:50.716Z,54.88
2018-09-13T00:24:19.951Z,54.96
2018-09-13T00:26:49.142Z,55.15
2018-09-13T00:29:18.221Z,55.25
2018-09-13T00:31:47.402Z,54.95
2018-09-13T00:34:16.618Z,55.38
2018-09-13T00:36:46.457Z,55.03
2018-09-13T00:39:15.753Z,55.13
2018-09-13T00:41:44.920Z,55.28
2018-09-13T00:44:14.011Z,54.51
2018-09-13T00:46:43.134Z,54.58
2018-09-13T00:49:18.676Z,54.43
2018-09-13T00:51:48.648Z,55.20
2018-09-13T00:54:17.859Z,55.04
2018-09-13T00:56:46.943Z,55.12
2018-09-13T00:59:15.960Z,54.92
2018-09-13T01:01:44.930Z,54.54
2018-09-13T01:04:13.982Z,54.70
2018-09-13T01:06:42.909Z,54.59
2018-09-13T01:09:12.265Z,54.45
2018-09-13T01:11:41.269Z,55.34
2018-09-13T01:14:10.471Z,55.29
2018-09-13T01:16:39.753Z,54.84
2018-09-13T01:19:09.190Z,54.72
2018-09-13T01:21:38.306Z,55.41
2018-09-13T01:24:07.527Z,55.53
2018-09-13T01:26:36.742Z,55.33
2018-09-13T01:29:05.674Z,55.20
2018-09-13T01:31:35.006Z,55.19
2018-09-13T01:34:04.557Z,55.48
2018-09-13T01:36:33.712Z,55.98
2018-09-13T01:39:03.049Z,55.56
2018-09-13T01:41:32.042Z,55.29
2018-09-13T01:44:01.447Z,55.15
2018-09-13T01:46:30.523Z,55.21
2018-09-13T01:48:59.626Z,56.15
2018-09-13T01:51:29.039Z,56.28
2018-09-13T01:53:58.102Z,56.31
2018-09-13T01:56:27.281Z,56.01
2018-09-13T01:58:56.503Z,56.02
2018-09-13T02:01:25.561Z,56.50
2018-09-13T02:03:54.889Z,56.46
2018-09-13T02:06:24.321Z,56.69
2018-09-13T02:08:53.563Z,56.32
2018-09-13T02:11:23.554Z,56.90
2018-09-13T02:13:52.598Z,56.64
2018-09-13T02:16:21.787Z,56.93
2018-09-13T02:18:50.964Z,57.18
2018-09-13T02:21:20.066Z,56.49
2018-09-13T02:23:49.199Z,56.85
2018-09-13T02:26:18.177Z,56.91
2018-09-13T02:28:47.646Z,56.73
2018-09-13T02:31:16.833Z,57.22
2018-09-13T02:33:46.024Z,56.95
2018-09-13T02:36:15.219Z,57.46
2018-09-13T02:38:44.603Z,56.84
2018-09-13T02:41:13.750Z,57.73
2018-09-13T02:43:42.687Z,56.95
2018-09-13T02:46:12.010Z,57.90
2018-09-13T02:48:41.555Z,57.90
2018-09-13T02:51:10.771Z,57.16
2018-09-13T02:53:39.932Z,57.77
2018-09-13T02:56:09.254Z,57.38
2018-09-13T02:58:38.224Z,58.18
2018-09-13T03:01:08.732Z,57.52
2018-09-13T03:03:37.807Z,58.24
2018-09-13T03:06:06.854Z,58.08
2018-09-13T03:08:35.817Z,57.90
2018-09-13T03:11:04.963Z,58.13
2018-09-13T03:13:34.010Z,58.50
2018-09-13T03:16:03.360Z,58.17
2018-09-13T03:18:33.263Z,59.08
2018-09-13T03:21:02.406Z,58.18
2018-09-13T03:23:32.443Z,58.37
2018-09-13T03:26:01.666Z,58.77
2018-09-13T03:28:31.274Z,58.71
2018-09-13T03:31:00.782Z,58.00
2018-09-13T03:33:30.031Z,58.00
2018-09-13T03:35:59.191Z,58.74
2018-09-13T03:38:28.219Z,58.21
2018-09-13T03:40:57.945Z,58.55
2018-09-13T03:43:27.135Z,58.96
2018-09-13T03:45:56.236Z,58.33
2018-09-13T03:48:25.332Z,58.34
2018-09-13T03:50:54.619Z,58.27
2018-09-13T03:53:23.854Z,58.61
2018-09-13T03:55:52.775Z,58.92
2018-09-13T03:58:22.190Z,58.99
2018-09-13T04:00:51.622Z,58.51
2018-09-13T04:03:20.675Z,58.44
2018-09-13T04:05:50.208Z,58.79
2018-09-13T04:08:19.201Z,58.42
2018-09-13T04:10:48.414Z,59.01
2018-09-13T04:13:17.568Z,59.36
2018-09-13T04:15:47.001Z,58.94
2018-09-13T04:18:15.959Z,59.58
2018-09-13T04:20:45.829Z,59.13
2018-09-13T04:23:16.734Z,59.70
2018-09-13T04:25:45.710Z,59.75
2018-09-13T04:28:14.797Z,59.34
2018-09-13T04:30:44.164Z,59.50
2018-09-13T04:33:13.177Z,59.34
2018-09-13T04:35:42.538Z,59.04
2018-09-13T04:38:12.252Z,59.11
2018-09-13T04:40:41.760Z,59.45
2018-09-13T04:43:10.889Z,59.37
2018-09-13T04:45:40.475Z,59.43
2018-09-13T04:48:11.789Z,58.98
2018-09-13T04:50:43.038Z,59.51
2018-09-13T04:53:12.670Z,58.88
2018-09-13T04:55:42.019Z,58.94
2018-09-13T04:58:11.270Z,58.88
2018-09-13T05:00:40.816Z,58.97
2018-09-13T05:03:09.850Z,58.99
2018-09-13T05:05:38.972Z,59.05
2018-09-13T05:08:08.622Z,59.06
2018-09-13T05:10:37.809Z,59.04
2018-09-13T05:13:07.186Z,59.28
2018-09-13T05:15:36.235Z,59.15
2018-09-13T05:18:05.891Z,59.48
2018-09-13T05:20:34.846Z,59.07
2018-09-13T05:23:03.996Z,58.72
2018-09-13T05:25:33.936Z,58.35
2018-09-13T05:28:02.949Z,58.61
2018-09-13T05:30:32.096Z,58.57
2018-09-13T05:33:01.200Z,58.28
2018-09-13T05:35:30.697Z,58.86
2018-09-13T05:38:00.150Z,58.73
2018-09-13T05:40:29.141Z,58.53
2018-09-13T05:42:58.096Z,58.05
2018-09-13T05:45:27.416Z,58.36
2018-09-13T05:47:56.772Z,58.13
2018-09-13T05:50:25.802Z,57.52
2018-09-13T05:52:55.023Z,57.72
2018-09-13T05:55:24.373Z,56.89
2018-09-13T05:57:53.526Z,57.28
2018-09-13T06:00:23.098Z,56.82
2018-09-13T06:02:52.521Z,56.68
2018-09-13T06:05:21.529Z,56.29
2018-09-13T06:07:50.688Z,55.89
2018-09-13T06:10:20.006Z,56.01
2018-09-13T06:12:49.024Z,56.22
2018-09-13T06:15:18.224Z,55.90
2018-09-13T06:17:47.449Z,55.45
2018-09-13T06:20:16.885Z,55.43
2018-09-13T06:22:46.054Z,55.78
2018-09-13T06:25:15.547Z,55.33
2018-09-13T06:27:44.520Z,55.16
2018-09-13T06:30:13.531Z,55.97
2018-09-13T06:32:42.626Z,55.35
2018-09-13T06:35:11.589Z,56.25
2018-09-13T06:37:40.731Z,55.68
2018-09-13T06:40:09.786Z,56.06
2018-09-13T06:42:38.830Z,55.85
2018-09-13T06:45:08.052Z,55.40
2018-09-13T06:47:37.148Z,55.10
2018-09-13T06:50:07.139Z,56.02
2018-09-13T06:52:36.292Z,55.93
2018-09-13T06:55:05.596Z,55.52
2018-09-13T06:57:34.664Z,55.73
2018-09-13T07:00:04.219Z,55.58
2018-09-13T07:02:34.436Z,55.64
2018-09-13T07:05:03.925Z,56.68
2018-09-13T07:07:33.256Z,55.58
2018-09-13T07:10:02.191Z,56.06
2018-09-13T07:12:31.357Z,55.74
2018-09-13T07:15:00.555Z,56.05
2018-09-13T07:17:29.754Z,55.28
2018-09-13T07:19:58.895Z,55.47
2018-09-13T07:22:28.660Z,55.11
2018-09-13T07:24:57.937Z,55.58
2018-09-13T07:27:27.454Z,55.01
2018-09-13T07:29:56.700Z,55.11
2018-09-13T07:32:32.091Z,54.91
2018-09-13T07:35:01.041Z,54.82
2018-09-13T07:37:30.043Z,55.33
2018-09-13T07:39:59.313Z,54.66
2018-09-13T07:42:29.450Z,54.27
2018-09-13T07:44:59.641Z,54.64
2018-09-13T07:47:29.127Z,54.29
2018-09-13T07:49:58.480Z,54.07
2018-09-13T07:52:27.882Z,53.91
2018-09-13T07:54:57.020Z,53.46
2018-09-13T07:57:25.965Z,54.15
2018-09-13T07:59:54.856Z,53.78
2018-09-13T08:02:23.795Z,54.19
2018-09-13T08:04:52.795Z,53.28
2018-09-13T08:07:22.027Z,53.90
2018-09-13T08:09:51.487Z,53.86
2018-09-13T08:12:20.483Z,53.51
2018-09-13T08:14:49.614Z,54.08
2018-09-13T08:17:18.701Z,53.53
2018-09-13T08:19:47.725Z,53.77
2018-09-13T08:22:16.962Z,53.54
2018-09-13T08:24:46.825Z,53.58
2018-09-13T08:27:15.940Z,52.65
2018-09-13T08:29:45.091Z,52.54
2018-09-13T08:32:14.402Z,53.17
2018-09-13T08:34:44.351Z,52.29
2018-09-13T08:37:14.134Z,52.79
2018-09-13T08:39:43.309Z,51.95
2018-09-13T08:42:12.731Z,52.50
2018-09-13T08:44:42.051Z,51.86
2018-09-13T08:47:11.296Z,52.18
2018-09-13T08:49:40.299Z,51.82
2018-09-13T08:52:09.917Z,51.01
2018-09-13T08:54:39.001Z,51.00
2018-09-13T08:57:08.114Z,49.85
2018-09-13T08:59:37.123Z,50.12
2018-09-13T09:02:06.090Z,49.83
2018-09-13T09:04:34.934Z,50.82
2018-09-13T09:07:04.000Z,50.09
2018-09-13T09:09:32.967Z,50.76
2018-09-13T09:12:02.159Z,50.57
2018-09-13T09:14:31.359Z,49.66
2018-09-13T09:17:00.491Z,49.82
2018-09-13T09:19:29.544Z,49.81
2018-09-13T09:21:58.561Z,49.83
2018-09-13T09:24:27.714Z,49.59
2018-09-13T09:26:56.892Z,48.59
2018-09-13T09:29:25.953Z,49.25
2018-09-13T09:31:55.316Z,48.86
2018-09-13T09:34:24.387Z,48.04
2018-09-13T09:36:53.327Z,48.18
2018-09-13T09:39:22.364Z,47.62
2018-09-13T09:41:51.472Z,47.69
2018-09-13T09:44:20.505Z,47.11
2018-09-13T09:46:49.697Z,47.57
2018-09-13T09:49:19.123Z,46.52
2018-09-13T09:51:48.112Z,46.72
2018-09-13T09:54:17.129Z,47.24
2018-09-13T09:56:46.477Z,46.77
2018-09-13T09:59:15.494Z,46.62
2018-09-13T10:01:49.420Z,45.98
2018-09-13T10:04:18.669Z,45.76
2018-09-13T10:06:47.949Z,45.98
2018-09-13T10:09:17.004Z,45.04
2018-09-13T10:11:46.447Z,45.04
2018-09-13T10:14:15.654Z,44.63
2018-09-13T10:16:49.907Z,44.73
2018-09-13T10:19:24.482Z,44.23
2018-09-13T10:21:58.753Z,44.34
2018-09-13T10:24:33.385Z,43.32
2018-09-13T10:27:07.761Z,43.79
2018-09-13T10:29:42.013Z,43.09
2018-09-13T10:32:16.422Z,41.86
2018-09-13T10:34:50.544Z,41.62
2018-09-13T10:37:24.885Z,41.75
2018-09-13T10:39:59.262Z,41.19
2018-09-13T10:42:33.375Z,40.72
2018-09-13T10:45:07.334Z,40.79
2018-09-13T10:47:42.167Z,40.58
2018-09-13T10:50:16.217Z,40.46
2018-09-13T10:52:49.731Z,39.35
2018-09-13T10:55:18.836Z,39.75
2018-09-13T10:57:48.494Z,39.49
2018-09-13T11:00:17.607Z,38.79
2018-09-13T11:02:46.689Z,39.37
2018-09-13T11:05:15.757Z,38.53
2018-09-13T11:07:45.281Z,38.37
2018-09-13T11:10:14.316Z,38.80
2018-09-13T11:12:49.070Z,38.80
2018-09-13T11:15:25.851Z,38.49
2018-09-13T11:17:54.982Z,38.28
2018-09-13T11:20:24.055Z,38.06
2018-09-13T11:22:54.756Z,37.00
2018-09-13T11:25:24.908Z,36.80
2018-09-13T11:27:54.918Z,37.49
2018-09-13T11:30:24.373Z,37.20
2018-09-13T11:32:53.546Z,36.96
2018-09-13T11:35:22.968Z,36.31
2018-09-13T11:37:53.030Z,36.81
2018-09-13T11:40:22.255Z,36.31
2018-09-13T11:42:51.505Z,35.93
2018-09-13T11:45:20.467Z,35.82
2018-09-13T11:47:49.366Z,35.58
2018-09-13T11:50:18.674Z,35.83
2018-09-13T11:52:47.705Z,34.77
2018-09-13T11:55:17.279Z,34.86
2018-09-13T11:57:46.325Z,35.53
2018-09-13T12:00:16.164Z,35.62
2018-09-13T12:02:45.284Z,34.53
2018-09-13T12:05:14.389Z,34.99
2018-09-13T12:07:43.796Z,34.83
2018-09-13T12:10:12.896Z,34.95
2018-09-13T12:12:42.216Z,34.78
2018-09-13T12:15:11.625Z,34.40
2018-09-13T12:17:40.762Z,33.56
2018-09-13T12:20:09.911Z,34.29
2018-09-13T12:22:38.971Z,33.36
2018-09-13T12:25:08.094Z,34.05
2018-09-13T12:27:37.687Z,33.18
2018-09-13T12:30:07.027Z,33.50
2018-09-13T12:32:36.243Z,32.54
2018-09-13T12:35:05.747Z,33.18
2018-09-13T12:37:34.781Z,33.33
2018-09-13T12:40:03.765Z,32.16
2018-09-13T12:42:32.777Z,32.55
2018-09-13T12:45:01.771Z,32.49
2018-09-13T12:47:30.893Z,31.84
2018-09-13T12:50:00.092Z,32.50
2018-09-13T12:52:29.097Z,32.00
2018-09-13T12:54:59.113Z,31.94
2018-09-13T12:57:28.374Z,31.80
2018-09-13T12:59:57.377Z,32.53
2018-09-13T13:02:28.235Z,32.72
2018-09-13T13:04:57.931Z,32.31
2018-09-13T13:07:33.387Z,32.75
2018-09-13T13:10:02.324Z,32.63
2018-09-13T13:12:31.350Z,31.64
2018-09-13T13:15:00.699Z,32.12
2018-09-13T13:17:30.134Z,32.53
2018-09-13T13:19:59.623Z,32.10
2018-09-13T13:22:29.143Z,32.48
2018-09-13T13:24:58.331Z,32.59
2018-09-13T13:27:27.842Z,32.28
2018-09-13T13:29:57.184Z,32.03
2018-09-13T13:32:26.090Z,32.06
2018-09-13T13:34:55.113Z,31.08
2018-09-13T13:37:24.332Z,31.96
2018-09-13T13:39:53.640Z,32.26
2018-09-13T13:42:22.614Z,32.07
2018-09-13T13:44:51.938Z,31.47
2018-09-13T13:47:21.020Z,32.08
2018-09-13T13:49:50.109Z,31.47
2018-09-13T13:52:19.073Z,32.11
2018-09-13T13:54:48.417Z,31.24
2018-09-13T13:57:18.294Z,31.32
2018-09-13T13:59:47.485Z,31.30
2018-09-13T14:02:16.850Z,31.04
2018-09-13T14:04:45.915Z,30.67
2018-09-13T14:07:14.835Z,30.24
2018-09-13T14:09:43.984Z,30.04
2018-09-13T14:12:13.500Z,31.18
2018-09-13T14:14:42.836Z,30.78
2018-09-13T14:17:11.829Z,31.07
2018-09-13T14:19:40.948Z,30.63
2018-09-13T14:22:10.250Z,30.28
2018-09-13T14:24:39.296Z,30.30
2018-09-13T14:27:08.287Z,30.38
2018-09-13T14:29:37.500Z,30.75
2018-09-13T14:32:06.683Z,31.15
2018-09-13T14:34:35.846Z,30.71
2018-09-13T14:37:04.895Z,31.21
2018-09-13T14:39:33.833Z,30.51
2018-09-13T14:42:03.338Z,31.13
2018-09-13T14:44:32.262Z,31.08
2018-09-13T14:47:01.345Z,31.04
2018-09-13T14:49:30.497Z,31.70
2018-09-13T14:51:59.758Z,31.47
2018-09-13T14:54:29.311Z,31.53
2018-09-13T14:56:58.714Z,32.47
2018-09-13T14:59:27.881Z,31.69
2018-09-13T15:01:57.206Z,31.80
2018-09-13T15:04:26.370Z,31.92
2018-09-13T15:06:55.263Z,32.02
2018-09-13T15:09:24.904Z,32.03
2018-09-13T15:11:54.767Z,32.49
2018-09-13T15:14:24.387Z,32.32
2018-09-13T15:16:53.472Z,32.17
2018-09-13T15:19:22.382Z,31.96
2018-09-13T15:21:52.052Z,32.76
2018-09-13T15:24:21.161Z,32.73
2018-09-13T15:26:50.597Z,32.36
2018-09-13T15:29:19.864Z,31.75
2018-09-13T15:31:48.999Z,32.59
2018-09-13T15:34:18.159Z,31.70
2018-09-13T15:36:47.371Z,32.67
2018-09-13T15:39:16.576Z,31.85
2018-09-13T15:41:45.633Z,32.34
2018-09-13T15:44:14.658Z,32.05
2018-09-13T15:46:43.799Z,32.01
2018-09-13T15:49:12.828Z,32.09
2018-09-13T15:51:42.246Z,32.61
2018-09-13T15:54:11.946Z,31.91
2018-09-13T15:56:41.106Z,32.93
2018-09-13T15:59:10.671Z,32.45
2018-09-13T16:01:39.980Z,33.71
2018-09-13T16:04:09.197Z,33.41
2018-09-13T16:06:38.237Z,33.80
2018-09-13T16:09:08.986Z,34.42
2018-09-13T16:11:38.304Z,33.57
2018-09-13T16:14:07.861Z,33.59
2018-09-13T16:16:36.913Z,34.06
2018-09-13T16:19:05.965Z,33.99
2018-09-13T16:21:35.650Z,33.93
2018-09-13T16:24:04.855Z,33.34
2018-09-13T16:26:34.819Z,34.26
2018-09-13T16:29:04.082Z,33.41
2018-09-13T16:31:33.182Z,33.87
2018-09-13T16:34:02.263Z,33.76
2018-09-13T16:36:32.567Z,34.03
2018-09-13T16:40:15.384Z,33.82
2018-09-13T16:42:53.832Z,33.62
2018-09-13T16:45:27.482Z,33.41
2018-09-13T16:47:56.958Z,34.23
2018-09-13T16:50:25.987Z,34.26
2018-09-13T16:52:55.117Z,33.97
2018-09-13T16:55:24.630Z,34.05
2018-09-13T16:57:53.677Z,34.90
2018-09-13T17:00:25.011Z,34.65
2018-09-13T17:02:54.665Z,35.38
2018-09-13T17:05:23.660Z,35.48
2018-09-13T17:07:52.562Z,35.93
2018-09-13T17:10:21.757Z,35.67
2018-09-13T17:12:50.818Z,35.98
2018-09-13T17:15:19.833Z,36.29
2018-09-13T17:17:49.029Z,36.39
2018-09-13T17:20:19.056Z,36.63
2018-09-13T17:22:48.362Z,37.79
2018-09-13T17:25:17.472Z,37.36
2018-09-13T17:27:46.654Z,38.18
2018-09-13T17:30:15.747Z,37.85
2018-09-13T17:32:45.051Z,38.93
2018-09-13T17:35:14.379Z,39.06
2018-09-13T17:37:43.453Z,39.54
2018-09-13T17:40:12.777Z,38.88
2018-09-13T17:42:42.108Z,39.64
2018-09-13T17:45:11.259Z,40.31
2018-09-13T17:47:40.302Z,39.83
2018-09-13T17:50:09.230Z,39.87
2018-09-13T17:52:38.414Z,40.65
2018-09-13T17:55:07.684Z,41.23
2018-09-13T17:57:36.973Z,40.57
2018-09-13T18:00:07.479Z,40.93
2018-09-13T18:02:36.601Z,41.81
2018-09-13T18:05:05.835Z,42.04
2018-09-13T18:07:35.194Z,41.09
2018-09-13T18:10:05.841Z,42.19
2018-09-13T18:12:35.041Z,41.94
2018-09-13T18:15:04.438Z,42.21
2018-09-13T18:17:33.791Z,41.55
2018-09-13T18:20:03.056Z,43.00
2018-09-13T18:22:32.104Z,42.25
2018-09-13T18:25:01.177Z,42.50
2018-09-13T18:27:30.489Z,42.66
2018-09-13T18:30:00.068Z,42.71
2018-09-13T18:32:29.316Z,43.56
2018-09-13T18:34:58.413Z,43.73
2018-09-13T18:37:27.374Z,43.24
2018-09-13T18:39:56.476Z,43.32
2018-09-13T18:42:25.794Z,43.97
2018-09-13T18:44:54.768Z,43.55
2018-09-13T18:47:24.122Z,43.70
2018-09-13T18:49:53.092Z,44.44
2018-09-13T18:52:22.362Z,44.01
2018-09-13T18:54:51.381Z,44.97
2018-09-13T18:57:20.591Z,44.25
2018-09-13T18:59:49.705Z,44.88
2018-09-13T19:02:18.956Z,45.21
2018-09-13T19:04:47.988Z,45.39
2018-09-13T19:07:17.349Z,44.75
2018-09-13T19:09:46.699Z,45.04
2018-09-13T19:12:15.905Z,45.32
2018-09-13T19:14:45.230Z,45.41
2018-09-13T19:17:14.410Z,45.99
2018-09-13T19:19:44.430Z,46.25
2018-09-13T19:22:13.734Z,46.30
2018-09-13T19:24:43.716Z,46.08
2018-09-13T19:27:13.404Z,46.24
2018-09-13T19:29:42.537Z,46.17
2018-09-13T19:32:11.881Z,46.61
2018-09-13T19:34:41.316Z,47.15
2018-09-13T19:37:10.883Z,46.85
2018-09-13T19:39:40.047Z,46.95
2018-09-13T19:42:09.234Z,47.12
2018-09-13T19:44:38.681Z,47.24
2018-09-13T19:47:14.125Z,46.54
2018-09-13T19:49:43.288Z,46.62
2018-09-13T19:52:12.328Z,46.97
2018-09-13T19:54:41.576Z,47.65
2018-09-13T19:57:11.643Z,47.02
2018-09-13T19:59:40.763Z,47.66
2018-09-13T20:02:09.737Z,47.41
2018-09-13T20:04:38.973Z,47.59
2018-09-13T20:07:08.506Z,47.32
2018-09-13T20:09:37.661Z,47.57
2018-09-13T20:12:06.705Z,47.12
2018-09-13T20:14:36.329Z,47.48
2018-09-13T20:17:05.828Z,48.02
2018-09-13T20:19:34.925Z,48.15
2018-09-13T20:22:03.852Z,47.35
2018-09-13T20:24:33.339Z,48.08
2018-09-13T20:27:02.561Z,47.86
2018-09-13T20:29:31.775Z,47.61
2018-09-13T20:32:00.769Z,47.98
2018-09-13T20:34:30.123Z,48.88
2018-09-13T20:36:59.148Z,48.61
2018-09-13T20:39:28.475Z,49.35
2018-09-13T20:41:57.517Z,48.45
2018-09-13T20:44:26.573Z,49.25
2018-09-13T20:46:55.873Z,49.41
2018-09-13T20:49:25.186Z,48.84
2018-09-13T20:51:55.666Z,48.88
2018-09-13T20:54:24.843Z,49.78
2018-09-13T20:56:54.106Z,49.01
2018-09-13T20:59:23.085Z,49.57
2018-09-13T21:01:52.433Z,49.06
2018-09-13T21:04:22.252Z,49.61
2018-09-13T21:06:51.437Z,49.10
2018-09-13T21:09:20.445Z,49.85
2018-09-13T21:11:49.492Z,49.18
2018-09-13T21:14:18.930Z,50.13
2018-09-13T21:16:48.303Z,49.81
2018-09-13T21:19:17.639Z,50.21
2018-09-13T21:21:46.771Z,49.74
2018-09-13T21:24:16.203Z,50.46
2018-09-13T21:26:45.413Z,50.16
2018-09-13T21:29:14.959Z,49.94
2018-09-13T21:31:44.143Z,50.57
2018-09-13T21:34:13.290Z,50.70
2018-09-13T21:36:42.397Z,50.95
2018-09-13T21:39:11.607Z,50.32
2018-09-13T21:41:40.485Z,50.57
2018-09-13T21:44:09.583Z,51.32
2018-09-13T21:46:38.696Z,50.93
2018-09-13T21:49:07.684Z,50.85
2018-09-13T21:51:37.234Z,50.83
2018-09-13T21:54:06.981Z,51.06
2018-09-13T21:56:35.935Z,51.46
2018-09-13T21:59:05.194Z,51.19
2018-09-13T22:01:35.061Z,51.96
2018-09-13T22:04:04.256Z,52.76
2018-09-13T22:06:33.256Z,52.73
2018-09-13T22:09:02.528Z,53.32
2018-09-13T22:11:31.583Z,53.60
2018-09-13T22:14:00.622Z,53.61
2018-09-13T22:16:29.794Z,53.66
2018-09-13T22:18:58.854Z,53.82
2018-09-13T22:21:28.570Z,53.70
2018-09-13T22:23:57.655Z,54.22
2018-09-13T22:26:26.832Z,54.43
2018-09-13T22:28:56.226Z,54.45
2018-09-13T22:31:25.462Z,54.07
2018-09-13T22:33:54.668Z,54.00
2018-09-13T22:36:24.473Z,54.57
2018-09-13T22:38:54.043Z,54.23
2018-09-13T22:41:23.174Z,54.96
2018-09-13T22:43:53.250Z,54.28
2018-09-13T22:46:23.975Z,54.49
2018-09-13T22:48:53.097Z,54.29
2018-09-13T22:51:22.460Z,54.62
2018-09-13T22:53:51.496Z,55.05
2018-09-13T22:56:20.870Z,54.99
2018-09-13T22:58:49.964Z,54.77
2018-09-13T23:01:19.030Z,54.65
2018-09-13T23:03:48.540Z,54.92
2018-09-13T23:06:17.564Z,55.11
2018-09-13T23:08:46.623Z,55.00
2018-09-13T23:11:15.859Z,55.65
2018-09-13T23:13:44.958Z,55.68
2018-09-13T23:16:14.191Z,55.36
2018-09-13T23:18:43.134Z,56.04
2018-09-13T23:21:12.081Z,55.50
2018-09-13T23:23:41.340Z,56.23
2018-09-13T23:26:10.692Z,56.27
2018-09-13T23:28:39.937Z,55.54
2018-09-13T23:31:09.142Z,55.55
2018-09-13T23:33:38.208Z,55.77
2018-09-13T23:36:07.315Z,55.63
2018-09-13T23:38:36.522Z,55.17
2018-09-13T23:41:05.702Z,55.37
2018-09-13T23:43:34.851Z,55.45
2018-09-13T23:46:04.054Z,55.66
2018-09-13T23:48:33.099Z,56.06
2018-09-13T23:51:02.167Z,55.64
2018-09-13T23:53:31.169Z,55.81
2018-09-13T23:56:00.189Z,56.09
2018-09-13T23:58:29.288Z,56.26
